createdAt,value
2022-09-20T00:01:32.848Z,6.80
2022-09-20T00:04:04.345Z,6.79
2022-09-20T00:06:31.354Z,6.77
2022-09-20T00:09:00.724Z,6.76
2022-09-20T00:11:30.728Z,6.75
2022-09-20T00:13:59.646Z,6.74
2022-09-20T00:16:30.611Z,6.73
2022-09-20T00:18:59.315Z,6.72
2022-09-20T00:21:29.430Z,6.71
2022-09-20T00:23:56.982Z,6.69
2022-09-20T00:26:25.120Z,6.69
2022-09-20T00:28:51.790Z,6.68
2022-09-20T00:31:18.889Z,6.67
2022-09-20T00:34:04.488Z,6.66
2022-09-20T00:36:31.563Z,6.64
2022-09-20T00:39:00.212Z,6.63
2022-09-20T00:41:28.907Z,6.61
2022-09-20T00:43:56.041Z,6.60
2022-09-20T00:46:34.679Z,6.60
2022-09-20T00:49:15.832Z,6.60
2022-09-20T00:51:46.573Z,6.60
2022-09-20T00:54:20.167Z,6.59
2022-09-20T00:56:48.284Z,6.59
2022-09-20T00:59:26.617Z,6.59
2022-09-20T01:01:58.993Z,6.59
2022-09-20T01:04:28.112Z,6.58
2022-09-20T01:06:58.908Z,6.58
2022-09-20T01:09:25.761Z,6.58
2022-09-20T01:11:55.345Z,6.59
2022-09-20T01:14:23.874Z,6.58
2022-09-20T01:16:54.620Z,6.59
2022-09-20T01:19:59.908Z,6.59
2022-09-20T01:22:35.102Z,6.59
2022-09-20T01:25:39.392Z,6.60
2022-09-20T01:28:06.235Z,6.61
2022-09-20T01:30:51.432Z,6.61
2022-09-20T01:33:26.869Z,6.61
2022-09-20T01:35:56.313Z,6.61
2022-09-20T01:38:55.715Z,6.61
2022-09-20T01:41:44.500Z,6.61
2022-09-20T01:44:37.145Z,6.62
2022-09-20T01:47:21.698Z,6.62
2022-09-20T01:49:53.942Z,6.62
2022-09-20T01:52:47.432Z,6.61
2022-09-20T01:55:35.734Z,6.61
2022-09-20T01:58:08.386Z,6.61
2022-09-20T02:00:44.812Z,6.61
2022-09-20T02:03:49.123Z,6.59
2022-09-20T02:06:57.494Z,6.58
2022-09-20T02:09:40.076Z,6.56
2022-09-20T02:12:34.522Z,6.54
2022-09-20T02:15:13.511Z,6.53
2022-09-20T02:18:06.598Z,6.52
2022-09-20T02:20:51.726Z,6.49
2022-09-20T02:23:42.280Z,6.47
2022-09-20T02:26:33.371Z,6.45
2022-09-20T02:29:15.257Z,6.42
2022-09-20T02:31:57.102Z,6.40
2022-09-20T02:34:50.929Z,6.36
2022-09-20T02:37:31.629Z,6.33
2022-09-20T02:40:16.644Z,6.29
2022-09-20T02:43:04.102Z,6.26
2022-09-20T02:45:45.892Z,6.24
2022-09-20T02:48:17.444Z,6.22
2022-09-20T02:50:59.151Z,6.19
2022-09-20T02:53:44.558Z,6.17
2022-09-20T02:56:36.936Z,6.12
2022-09-20T02:59:24.778Z,6.08
2022-09-20T03:02:24.343Z,6.02
2022-09-20T03:05:10.563Z,5.95
2022-09-20T03:07:55.700Z,5.91
2022-09-20T03:10:39.549Z,5.88
2022-09-20T03:13:18.424Z,5.87
2022-09-20T03:15:54.982Z,5.88
2022-09-20T03:18:33.639Z,5.89
2022-09-20T03:21:36.106Z,5.91
2022-09-20T03:24:35.067Z,5.94
2022-09-20T03:27:18.906Z,5.96
2022-09-20T03:30:17.875Z,5.99
2022-09-20T03:33:23.394Z,5.98
2022-09-20T03:36:27.990Z,5.97
2022-09-20T03:38:54.533Z,5.94
2022-09-20T03:41:57.304Z,5.91
2022-09-20T03:44:58.073Z,5.88
2022-09-20T03:47:32.404Z,5.86
2022-09-20T03:50:33.097Z,5.84
2022-09-20T03:53:24.379Z,5.82
2022-09-20T03:55:51.036Z,5.80
2022-09-20T03:58:28.543Z,5.78
2022-09-20T04:01:16.107Z,5.75
2022-09-20T04:04:04.377Z,5.73
2022-09-20T04:06:47.802Z,5.70
2022-09-20T04:09:48.085Z,5.68
2022-09-20T04:12:26.491Z,5.65
2022-09-20T04:15:33.718Z,5.63
2022-09-20T04:18:09.075Z,5.59
2022-09-20T04:20:54.642Z,5.56
2022-09-20T04:23:38.203Z,5.54
2022-09-20T04:26:05.050Z,5.51
2022-09-20T04:29:08.104Z,5.50
2022-09-20T04:31:58.746Z,5.50
2022-09-20T04:34:52.451Z,5.54
2022-09-20T04:37:33.829Z,5.59
2022-09-20T04:40:22.013Z,5.61
2022-09-20T04:43:03.832Z,5.60
2022-09-20T04:45:57.795Z,5.60
2022-09-20T04:48:30.387Z,5.61
2022-09-20T04:51:12.208Z,5.61
2022-09-20T04:53:51.542Z,5.58
2022-09-20T04:56:37.115Z,5.59
2022-09-20T04:59:09.745Z,5.60
2022-09-20T05:01:45.665Z,5.63
2022-09-20T05:04:53.049Z,5.66
2022-09-20T05:07:45.271Z,5.71
2022-09-20T05:10:42.926Z,5.78
2022-09-20T05:13:37.723Z,5.83
2022-09-20T05:16:27.463Z,5.89
2022-09-20T05:19:13.010Z,5.95
2022-09-20T05:22:18.621Z,5.98
2022-09-20T05:25:29.919Z,6.02
2022-09-20T05:28:01.130Z,6.07
2022-09-20T05:30:37.478Z,6.17
2022-09-20T05:33:09.945Z,6.24
2022-09-20T05:35:39.630Z,6.27
2022-09-20T05:38:46.932Z,6.31
2022-09-20T05:41:37.892Z,6.36
2022-09-20T05:44:22.792Z,6.42
2022-09-20T05:47:07.593Z,6.47
2022-09-20T05:49:55.442Z,6.49
2022-09-20T05:52:33.617Z,6.54
2022-09-20T05:55:03.171Z,6.60
2022-09-20T05:58:04.366Z,6.64
2022-09-20T06:00:42.807Z,6.67
2022-09-20T06:03:33.089Z,6.71
2022-09-20T06:06:24.209Z,6.77
2022-09-20T06:09:14.003Z,6.82
2022-09-20T06:12:01.668Z,6.85
2022-09-20T06:14:47.195Z,6.91
2022-09-20T06:17:26.897Z,6.95
2022-09-20T06:20:05.538Z,6.97
2022-09-20T06:22:38.188Z,7.01
2022-09-20T06:25:07.678Z,7.06
2022-09-20T06:27:42.688Z,7.10
2022-09-20T06:30:20.824Z,7.16
2022-09-20T06:33:09.739Z,7.18
2022-09-20T06:35:41.500Z,7.27
2022-09-20T06:38:35.518Z,7.34
2022-09-20T06:41:22.098Z,7.45
2022-09-20T06:43:49.529Z,7.53
2022-09-20T06:46:16.702Z,7.61
2022-09-20T06:48:43.445Z,7.70
2022-09-20T06:51:10.617Z,7.77
2022-09-20T06:53:40.714Z,7.86
2022-09-20T06:56:13.953Z,7.98
2022-09-20T06:58:40.458Z,8.11
2022-09-20T07:01:07.103Z,8.21
2022-09-20T07:03:33.770Z,8.32
2022-09-20T07:06:00.804Z,8.45
2022-09-20T07:08:27.352Z,8.58
2022-09-20T07:10:54.242Z,8.68
2022-09-20T07:13:20.900Z,8.79
2022-09-20T07:15:47.892Z,8.90
2022-09-20T07:18:14.658Z,9.00
2022-09-20T07:20:41.521Z,9.11
2022-09-20T07:23:08.162Z,9.20
2022-09-20T07:25:36.083Z,9.30
2022-09-20T07:28:02.923Z,9.39
2022-09-20T07:30:29.614Z,9.48
2022-09-20T07:32:56.210Z,9.58
2022-09-20T07:35:22.803Z,9.64
2022-09-20T07:37:56.493Z,9.69
2022-09-20T07:40:23.650Z,9.78
2022-09-20T07:42:53.075Z,9.88
2022-09-20T07:45:23.358Z,9.95
2022-09-20T07:47:49.915Z,9.99
2022-09-20T07:50:16.594Z,10.03
2022-09-20T07:52:43.136Z,10.08
2022-09-20T07:55:09.759Z,10.15
2022-09-20T07:57:37.676Z,10.21
2022-09-20T08:00:07.127Z,10.28
2022-09-20T08:02:39.280Z,10.35
2022-09-20T08:05:06.224Z,10.44
2022-09-20T08:07:32.968Z,10.63
2022-09-20T08:09:59.529Z,10.92
2022-09-20T08:15:13.852Z,11.60
2022-09-20T08:17:40.574Z,11.90
2022-09-20T08:20:07.672Z,12.24
2022-09-20T08:22:34.399Z,12.56
2022-09-20T08:25:00.893Z,12.82
2022-09-20T08:27:27.349Z,13.05
2022-09-20T08:29:56.767Z,13.26
2022-09-20T08:32:23.300Z,13.47
2022-09-20T08:34:49.916Z,13.67
2022-09-20T08:37:16.365Z,13.90
2022-09-20T08:39:59.032Z,14.10
2022-09-20T08:42:44.838Z,14.31
2022-09-20T08:45:23.361Z,14.57
2022-09-20T08:48:04.991Z,14.80
2022-09-20T08:50:33.954Z,14.87
2022-09-20T08:53:04.448Z,14.86
2022-09-20T08:55:36.397Z,14.84
2022-09-20T08:58:08.409Z,14.83
2022-09-20T09:00:37.477Z,14.82
2022-09-20T09:03:12.231Z,14.82
2022-09-20T09:06:00.593Z,14.68
2022-09-20T09:08:37.589Z,14.57
2022-09-20T09:11:10.790Z,14.48
2022-09-20T09:14:00.987Z,14.39
2022-09-20T09:16:35.462Z,14.51
2022-09-20T09:19:26.616Z,14.81
2022-09-20T09:22:04.975Z,15.22
2022-09-20T09:24:32.413Z,15.43
2022-09-20T09:27:15.883Z,15.49
2022-09-20T09:29:54.310Z,15.51
2022-09-20T09:32:30.430Z,15.55
2022-09-20T09:35:22.221Z,15.53
2022-09-20T09:37:58.093Z,15.37
2022-09-20T09:40:25.814Z,15.14
2022-09-20T09:42:57.782Z,14.63
2022-09-20T09:45:27.288Z,14.10
2022-09-20T09:47:55.843Z,13.66
2022-09-20T09:50:29.971Z,13.36
2022-09-20T09:53:10.381Z,13.19
2022-09-20T09:55:39.893Z,13.10
2022-09-20T09:58:22.083Z,13.12
2022-09-20T10:00:51.721Z,13.30
2022-09-20T10:03:34.648Z,13.47
2022-09-20T10:06:01.246Z,13.58
2022-09-20T10:08:30.427Z,13.61
2022-09-20T10:11:28.623Z,13.59
2022-09-20T10:14:35.450Z,13.57
2022-09-20T10:17:43.511Z,13.55
2022-09-20T10:20:27.606Z,13.46
2022-09-20T10:23:58.591Z,13.42
2022-09-20T10:26:30.151Z,13.38
2022-09-20T10:29:16.861Z,13.37
2022-09-20T10:32:04.782Z,13.37
2022-09-20T10:34:46.571Z,13.34
2022-09-20T10:37:31.695Z,13.33
2022-09-20T10:40:19.416Z,13.26
2022-09-20T10:43:07.876Z,13.19
2022-09-20T10:46:20.615Z,13.15
2022-09-20T10:48:47.883Z,13.26
2022-09-20T10:51:46.639Z,13.42
2022-09-20T10:54:50.470Z,13.50
2022-09-20T10:57:47.434Z,13.55
2022-09-20T11:00:24.399Z,13.65
2022-09-20T11:03:09.240Z,13.88
2022-09-20T11:05:52.951Z,13.96
2022-09-20T11:08:25.749Z,14.13
2022-09-20T11:11:06.005Z,14.41
2022-09-20T11:13:59.212Z,14.72
2022-09-20T11:16:52.482Z,15.11
2022-09-20T11:19:40.931Z,15.47
2022-09-20T11:22:17.848Z,15.72
2022-09-20T11:25:04.687Z,15.87
2022-09-20T11:27:39.435Z,15.99
2022-09-20T11:30:10.612Z,16.06
2022-09-20T11:32:42.715Z,16.08
2022-09-20T11:35:14.089Z,16.24
2022-09-20T11:37:48.431Z,16.59
2022-09-20T11:40:29.349Z,16.79
2022-09-20T11:42:59.416Z,16.71
2022-09-20T11:45:28.855Z,16.65
2022-09-20T11:48:28.002Z,16.58
2022-09-20T11:51:06.644Z,16.69
2022-09-20T11:54:14.824Z,16.77
2022-09-20T11:56:50.366Z,16.76
2022-09-20T11:59:37.598Z,16.73
2022-09-20T12:02:17.617Z,16.78
2022-09-20T12:04:48.914Z,16.70
2022-09-20T12:07:23.819Z,16.61
2022-09-20T12:09:56.283Z,16.48
2022-09-20T12:12:40.948Z,16.35
2022-09-20T12:15:25.949Z,16.23
2022-09-20T12:17:52.481Z,16.15
2022-09-20T12:20:34.935Z,16.01
2022-09-20T12:23:42.407Z,15.86
2022-09-20T12:26:18.003Z,15.77
2022-09-20T12:28:48.823Z,15.66
2022-09-20T12:31:47.247Z,15.59
2022-09-20T12:34:16.658Z,15.51
2022-09-20T12:37:04.598Z,15.43
2022-09-20T12:39:38.163Z,15.33
2022-09-20T12:42:11.069Z,15.26
2022-09-20T12:44:44.076Z,15.21
2022-09-20T12:47:10.639Z,15.14
2022-09-20T12:50:04.797Z,15.02
2022-09-20T12:52:52.645Z,14.90
2022-09-20T12:55:41.924Z,14.88
2022-09-20T12:58:13.539Z,14.88
2022-09-20T13:00:45.600Z,14.78
2022-09-20T13:03:33.204Z,14.70
2022-09-20T13:06:06.031Z,14.52
2022-09-20T13:08:49.847Z,14.30
2022-09-20T13:11:24.542Z,14.20
2022-09-20T13:14:02.012Z,14.11
2022-09-20T13:16:50.886Z,14.03
2022-09-20T13:19:29.246Z,13.96
2022-09-20T13:22:19.113Z,13.90
2022-09-20T13:24:55.184Z,13.81
2022-09-20T13:27:37.441Z,13.67
2022-09-20T13:30:17.050Z,13.51
2022-09-20T13:32:44.438Z,13.46
2022-09-20T13:35:18.702Z,13.45
2022-09-20T13:37:56.078Z,13.41
2022-09-20T13:40:31.392Z,13.39
2022-09-20T13:43:22.224Z,13.38
2022-09-20T13:46:05.743Z,13.36
2022-09-20T13:48:32.546Z,13.33
2022-09-20T13:50:59.080Z,13.32
2022-09-20T13:53:41.011Z,13.30
2022-09-20T13:56:20.852Z,13.29
2022-09-20T13:58:49.149Z,13.29
2022-09-20T14:01:25.294Z,13.29
2022-09-20T14:03:53.898Z,13.29
2022-09-20T14:06:29.109Z,13.31
2022-09-20T14:08:58.234Z,13.32
2022-09-20T14:11:33.143Z,13.31
2022-09-20T14:14:02.124Z,13.31
2022-09-20T14:16:37.428Z,13.28
2022-09-20T14:19:07.280Z,13.23
2022-09-20T14:21:36.201Z,13.17
2022-09-20T14:24:15.386Z,13.10
2022-09-20T14:26:59.079Z,13.02
2022-09-20T14:29:44.567Z,12.98
2022-09-20T14:32:16.531Z,12.92
2022-09-20T14:35:04.964Z,12.88
2022-09-20T14:37:44.984Z,12.84
2022-09-20T14:40:28.564Z,12.79
2022-09-20T14:43:01.333Z,12.73
2022-09-20T14:45:38.286Z,12.70
2022-09-20T14:48:26.248Z,12.67
2022-09-20T14:51:18.278Z,12.61
2022-09-20T14:53:48.235Z,12.56
2022-09-20T14:56:17.162Z,12.52
2022-09-20T14:59:06.110Z,12.51
2022-09-20T15:01:35.562Z,12.48
2022-09-20T15:04:21.633Z,12.45
2022-09-20T15:06:52.530Z,12.42
2022-09-20T15:09:21.291Z,12.40
2022-09-20T15:12:18.430Z,12.39
2022-09-20T15:14:46.308Z,12.36
2022-09-20T15:17:21.304Z,12.34
2022-09-20T15:19:49.529Z,12.31
2022-09-20T15:22:16.443Z,12.26
2022-09-20T15:24:44.255Z,12.21
2022-09-20T15:27:12.434Z,12.18
2022-09-20T15:29:39.799Z,12.14
2022-09-20T15:32:09.402Z,12.08
2022-09-20T15:34:35.995Z,12.03
2022-09-20T15:37:02.562Z,11.99
2022-09-20T15:39:29.203Z,11.95
2022-09-20T15:41:56.585Z,11.90
2022-09-20T15:44:23.107Z,11.84
2022-09-20T15:46:50.923Z,11.79
2022-09-20T15:49:17.504Z,11.74
2022-09-20T15:51:45.847Z,11.70
2022-09-20T15:54:14.072Z,11.66
2022-09-20T15:56:40.953Z,11.62
2022-09-20T15:59:14.858Z,11.60
2022-09-20T16:01:51.486Z,11.58
2022-09-20T16:04:19.753Z,11.54
2022-09-20T16:06:52.338Z,11.50
2022-09-20T16:09:19.622Z,11.45
2022-09-20T16:11:47.415Z,11.40
2022-09-20T16:14:14.565Z,11.37
2022-09-20T16:16:41.157Z,11.34
2022-09-20T16:19:16.620Z,11.31
2022-09-20T16:21:46.564Z,11.29
2022-09-20T16:24:13.379Z,11.26
2022-09-20T16:26:40.451Z,11.21
2022-09-20T16:29:07.279Z,11.17
2022-09-20T16:31:48.366Z,11.11
2022-09-20T16:34:30.047Z,11.07
2022-09-20T16:36:58.472Z,11.03
2022-09-20T16:39:27.134Z,10.98
2022-09-20T16:41:56.699Z,10.93
2022-09-20T16:44:23.925Z,10.87
2022-09-20T16:46:50.965Z,10.81
2022-09-20T16:49:17.639Z,10.73
2022-09-20T16:51:45.692Z,10.66
2022-09-20T16:54:16.990Z,10.58
2022-09-20T16:56:48.787Z,10.50
2022-09-20T16:59:17.980Z,10.43
2022-09-20T17:01:45.011Z,10.36
2022-09-20T17:04:13.721Z,10.30
2022-09-20T17:06:42.655Z,10.23
2022-09-20T17:09:10.552Z,10.17
2022-09-20T17:11:40.587Z,10.08
2022-09-20T17:14:08.976Z,10.00
2022-09-20T17:16:37.741Z,9.93
2022-09-20T17:19:07.346Z,9.86
2022-09-20T17:21:36.600Z,9.78
2022-09-20T17:24:06.135Z,9.71
2022-09-20T17:26:39.791Z,9.64
2022-09-20T17:29:13.951Z,9.56
2022-09-20T17:31:50.100Z,9.46
2022-09-20T17:34:21.098Z,9.36
2022-09-20T17:36:48.226Z,9.26
2022-09-20T17:39:16.101Z,9.14
2022-09-20T17:41:48.660Z,9.02
2022-09-20T17:44:16.034Z,8.91
2022-09-20T17:46:45.019Z,8.81
2022-09-20T17:49:18.286Z,8.71
2022-09-20T17:51:51.483Z,8.64
2022-09-20T17:54:19.126Z,8.56
2022-09-20T17:56:48.768Z,8.48
2022-09-20T17:59:17.323Z,8.40
2022-09-20T18:01:46.479Z,8.33
2022-09-20T18:04:13.608Z,8.26
2022-09-20T18:06:52.500Z,8.20
2022-09-20T18:09:27.220Z,8.12
2022-09-20T18:11:55.249Z,8.06
2022-09-20T18:14:24.552Z,8.00
2022-09-20T18:16:57.411Z,7.93
2022-09-20T18:19:24.253Z,7.86
2022-09-20T18:21:51.331Z,7.82
2022-09-20T18:24:18.073Z,7.79
2022-09-20T18:26:44.728Z,7.74
2022-09-20T18:29:17.173Z,7.71
2022-09-20T18:32:00.292Z,7.66
2022-09-20T18:34:33.399Z,7.61
2022-09-20T18:37:03.302Z,7.56
2022-09-20T18:39:32.623Z,7.53
2022-09-20T18:41:59.411Z,7.49
2022-09-20T18:44:27.618Z,7.46
2022-09-20T18:46:54.353Z,7.42
2022-09-20T18:49:21.435Z,7.38
2022-09-20T18:51:49.448Z,7.34
2022-09-20T18:54:17.389Z,7.31
2022-09-20T18:56:46.475Z,7.29
2022-09-20T18:59:22.009Z,7.25
2022-09-20T19:01:54.744Z,7.21
2022-09-20T19:04:47.483Z,7.17
2022-09-20T19:07:22.506Z,7.13
2022-09-20T19:09:54.539Z,7.09
2022-09-20T19:12:39.592Z,7.05
2022-09-20T19:15:15.450Z,7.01
2022-09-20T19:18:20.386Z,6.98
2022-09-20T19:21:07.764Z,6.95
2022-09-20T19:23:40.568Z,6.92
2022-09-20T19:26:09.853Z,6.90
2022-09-20T19:28:36.835Z,6.89
2022-09-20T19:31:03.919Z,6.88
2022-09-20T19:33:30.765Z,6.86
2022-09-20T19:35:58.593Z,6.84
2022-09-20T19:38:41.852Z,6.81
2022-09-20T19:41:50.097Z,6.78
2022-09-20T19:44:36.342Z,6.76
2022-09-20T19:47:26.790Z,6.73
2022-09-20T19:50:17.605Z,6.70
2022-09-20T19:52:44.375Z,6.67
2022-09-20T19:55:15.006Z,6.63
2022-09-20T19:57:46.289Z,6.60
2022-09-20T20:00:16.538Z,6.56
2022-09-20T20:02:44.421Z,6.52
2022-09-20T20:05:27.989Z,6.48
2022-09-20T20:08:17.463Z,6.46
2022-09-20T20:10:56.377Z,6.43
2022-09-20T20:13:52.737Z,6.40
2022-09-20T20:16:30.224Z,6.39
2022-09-20T20:19:44.135Z,6.38
2022-09-20T20:22:20.995Z,6.36
2022-09-20T20:24:55.247Z,6.36
2022-09-20T20:27:27.735Z,6.37
2022-09-20T20:29:55.156Z,6.35
2022-09-20T20:32:21.963Z,6.33
2022-09-20T20:34:48.838Z,6.32
2022-09-20T20:37:15.483Z,6.30
2022-09-20T20:39:42.101Z,6.28
2022-09-20T20:42:09.484Z,6.26
2022-09-20T20:44:36.166Z,6.24
2022-09-20T20:47:05.506Z,6.23
2022-09-20T20:49:32.435Z,6.22
2022-09-20T20:52:04.123Z,6.20
2022-09-20T20:54:31.625Z,6.20
2022-09-20T20:56:58.939Z,6.18
2022-09-20T20:59:25.881Z,6.20
2022-09-20T21:01:52.604Z,6.21
2022-09-20T21:04:19.395Z,6.19
2022-09-20T21:06:46.033Z,6.17
2022-09-20T21:09:12.996Z,6.15
2022-09-20T21:11:43.583Z,6.12
2022-09-20T21:14:11.958Z,6.10
2022-09-20T21:16:44.780Z,6.06
2022-09-20T21:19:14.402Z,6.03
2022-09-20T21:21:42.943Z,6.00
2022-09-20T21:24:12.174Z,5.97
2022-09-20T21:26:39.388Z,5.94
2022-09-20T21:29:09.352Z,5.89
2022-09-20T21:31:38.870Z,5.85
2022-09-20T21:34:07.638Z,5.80
2022-09-20T21:36:37.321Z,5.76
2022-09-20T21:39:04.928Z,5.74
2022-09-20T21:41:33.819Z,5.72
2022-09-20T21:44:02.234Z,5.71
2022-09-20T21:46:33.104Z,5.70
2022-09-20T21:49:04.244Z,5.71
2022-09-20T21:51:32.634Z,5.71
2022-09-20T21:54:00.814Z,5.72
2022-09-20T21:56:33.256Z,5.73
2022-09-20T21:59:02.131Z,5.74
2022-09-20T22:01:34.402Z,5.76
2022-09-20T22:04:07.061Z,5.77
2022-09-20T22:06:37.063Z,5.80
2022-09-20T22:09:09.759Z,5.82
2022-09-20T22:11:41.535Z,5.84
2022-09-20T22:14:09.940Z,5.87
2022-09-20T22:16:39.324Z,5.90
2022-09-20T22:19:07.788Z,5.92
2022-09-20T22:21:43.359Z,5.94
2022-09-20T22:24:11.818Z,5.95
2022-09-20T22:26:48.586Z,5.94
2022-09-20T22:29:15.748Z,5.95
2022-09-20T22:31:45.070Z,5.96
2022-09-20T22:34:20.484Z,5.96
2022-09-20T22:36:47.392Z,5.96
2022-09-20T22:39:14.899Z,5.96
2022-09-20T22:41:42.086Z,5.95
2022-09-20T22:44:08.987Z,5.94
2022-09-20T22:46:37.535Z,5.93
2022-09-20T22:49:05.562Z,5.91
2022-09-20T22:51:33.334Z,5.88
2022-09-20T22:54:04.008Z,5.86
2022-09-20T22:56:32.445Z,5.84
2022-09-20T22:59:07.824Z,5.81
2022-09-20T23:01:36.884Z,5.78
2022-09-20T23:04:06.990Z,5.75
2022-09-20T23:06:38.218Z,5.72
2022-09-20T23:09:08.442Z,5.71
2022-09-20T23:11:36.168Z,5.69
2022-09-20T23:14:05.231Z,5.68
2022-09-20T23:16:35.279Z,5.69
2022-09-20T23:19:04.316Z,5.71
2022-09-20T23:21:32.030Z,5.73
2022-09-20T23:24:03.465Z,5.75
2022-09-20T23:26:33.051Z,5.77
2022-09-20T23:29:02.707Z,5.80
2022-09-20T23:31:31.444Z,5.83
2022-09-20T23:33:59.830Z,5.84
2022-09-20T23:36:28.985Z,5.86
2022-09-20T23:38:59.295Z,5.87
2022-09-20T23:41:27.453Z,5.89
2022-09-20T23:43:54.661Z,5.89
2022-09-20T23:46:22.807Z,5.89
2022-09-20T23:48:50.359Z,5.91
2022-09-20T23:51:21.918Z,5.91
2022-09-20T23:53:49.098Z,5.93
2022-09-20T23:56:15.710Z,5.94
2022-09-20T23:58:43.590Z,5.96
